createdAt,value
2024-05-09T00:00:30.806Z,65.86
2024-05-09T00:01:27.946Z,66.06
2024-05-09T00:02:25.870Z,65.75
2024-05-09T00:03:25.736Z,65.75
2024-05-09T00:04:25.713Z,65.45
2024-05-09T00:05:25.753Z,65.86
2024-05-09T00:06:25.658Z,65.55
2024-05-09T00:07:25.660Z,66.06
2024-05-09T00:08:25.718Z,65.99
2024-05-09T00:09:25.619Z,66.30
2024-05-09T00:10:33.461Z,66.19
2024-05-09T00:11:26.675Z,66.09
2024-05-09T00:12:25.811Z,66.50
2024-05-09T00:13:25.562Z,66.19
2024-05-09T00:14:25.694Z,67.21
2024-05-09T00:15:25.519Z,66.09
2024-05-09T00:16:25.488Z,66.30
2024-05-09T00:17:25.787Z,66.39
2024-05-09T00:18:25.534Z,66.09
2024-05-09T00:19:25.702Z,66.19
2024-05-09T00:20:33.228Z,66.09
2024-05-09T00:21:26.416Z,67.01
2024-05-09T00:22:25.407Z,66.39
2024-05-09T00:23:25.506Z,66.91
2024-05-09T00:24:25.363Z,66.94
2024-05-09T00:25:25.354Z,66.50
2024-05-09T00:26:25.365Z,66.50
2024-05-09T00:27:25.319Z,66.60
2024-05-09T00:28:25.311Z,66.30
2024-05-09T00:29:25.424Z,66.50
2024-05-09T00:30:33.220Z,66.60
2024-05-09T00:31:26.250Z,66.60
2024-05-09T00:32:25.462Z,66.60
2024-05-09T00:33:25.472Z,66.19
2024-05-09T00:34:25.286Z,66.70
2024-05-09T00:35:25.315Z,66.60
2024-05-09T00:36:25.158Z,66.60
2024-05-09T00:37:25.147Z,67.52
2024-05-09T00:38:25.210Z,65.89
2024-05-09T00:39:25.099Z,66.70
2024-05-09T00:40:35.110Z,66.50
2024-05-09T00:41:27.130Z,66.19
2024-05-09T00:42:25.071Z,66.30
2024-05-09T00:43:25.048Z,66.50
2024-05-09T00:44:25.155Z,66.30
2024-05-09T00:45:25.011Z,66.39
2024-05-09T00:46:24.995Z,66.60
2024-05-09T00:47:25.229Z,66.70
2024-05-09T00:48:25.055Z,66.19
2024-05-09T00:49:25.148Z,66.94
2024-05-09T00:50:33.801Z,66.60
2024-05-09T00:51:26.908Z,66.09
2024-05-09T00:52:51.340Z,66.91
2024-05-09T00:53:24.941Z,66.60
2024-05-09T00:54:24.876Z,66.60
2024-05-09T00:55:24.828Z,66.80
2024-05-09T00:56:24.900Z,67.01
2024-05-09T00:57:24.798Z,66.91
2024-05-09T00:58:24.785Z,66.91
2024-05-09T00:59:24.958Z,66.50
2024-05-09T01:00:31.594Z,66.83
2024-05-09T01:01:26.812Z,67.24
2024-05-09T01:02:24.833Z,67.55
2024-05-09T01:03:24.986Z,66.83
2024-05-09T01:04:24.855Z,67.04
2024-05-09T01:05:24.756Z,67.14
2024-05-09T01:06:24.651Z,67.41
2024-05-09T01:07:24.633Z,66.94
2024-05-09T01:08:24.932Z,66.80
2024-05-09T01:09:24.584Z,66.33
2024-05-09T01:10:32.206Z,66.63
2024-05-09T01:11:25.619Z,66.70
2024-05-09T01:12:24.725Z,67.14
2024-05-09T01:13:24.536Z,67.14
2024-05-09T01:14:24.637Z,67.04
2024-05-09T01:15:24.527Z,67.62
2024-05-09T01:16:24.481Z,67.04
2024-05-09T01:17:24.558Z,67.62
2024-05-09T01:18:24.558Z,67.76
2024-05-09T01:19:24.568Z,68.06
2024-05-09T01:20:32.141Z,67.96
2024-05-09T01:21:26.442Z,67.65
2024-05-09T01:22:24.372Z,68.06
2024-05-09T01:23:24.378Z,67.96
2024-05-09T01:24:24.334Z,67.76
2024-05-09T01:25:24.326Z,67.85
2024-05-09T01:26:24.406Z,67.76
2024-05-09T01:27:24.284Z,67.76
2024-05-09T01:28:24.272Z,67.85
2024-05-09T01:29:24.410Z,68.16
2024-05-09T01:30:31.723Z,67.65
2024-05-09T01:31:26.233Z,68.47
2024-05-09T01:32:24.300Z,68.16
2024-05-09T01:33:24.359Z,68.60
2024-05-09T01:34:24.184Z,68.60
2024-05-09T01:35:24.284Z,68.70
2024-05-09T01:36:24.263Z,68.70
2024-05-09T01:37:24.128Z,68.80
2024-05-09T01:38:24.146Z,68.70
2024-05-09T01:39:24.096Z,68.70
2024-05-09T01:40:33.455Z,69.04
2024-05-09T01:41:26.108Z,69.24
2024-05-09T01:42:24.045Z,69.35
2024-05-09T01:43:24.031Z,69.35
2024-05-09T01:44:24.163Z,68.63
2024-05-09T01:45:24.012Z,69.04
2024-05-09T01:46:23.972Z,69.04
2024-05-09T01:47:24.130Z,69.24
2024-05-09T01:48:24.182Z,69.24
2024-05-09T01:49:24.160Z,69.35
2024-05-09T01:50:35.755Z,69.04
2024-05-09T01:51:25.911Z,69.24
2024-05-09T01:52:23.913Z,69.45
2024-05-09T01:53:23.916Z,69.76
2024-05-09T01:54:23.849Z,69.56
2024-05-09T01:55:23.816Z,69.86
2024-05-09T01:56:23.867Z,69.45
2024-05-09T01:57:23.835Z,69.56
2024-05-09T01:58:23.786Z,70.06
2024-05-09T01:59:23.773Z,70.37
2024-05-09T02:00:33.757Z,69.76
2024-05-09T02:01:25.752Z,69.96
2024-05-09T02:02:23.818Z,70.71
2024-05-09T02:03:23.875Z,70.78
2024-05-09T02:04:23.892Z,70.88
2024-05-09T02:05:23.750Z,70.68
2024-05-09T02:06:23.642Z,70.81
2024-05-09T02:07:23.616Z,71.33
2024-05-09T02:08:23.707Z,71.22
2024-05-09T02:09:23.602Z,71.22
2024-05-09T02:10:30.323Z,71.87
2024-05-09T02:11:24.672Z,71.73
2024-05-09T02:12:23.656Z,72.14
2024-05-09T02:13:23.559Z,72.17
2024-05-09T02:14:23.628Z,72.17
2024-05-09T02:15:23.484Z,72.48
2024-05-09T02:16:23.489Z,72.17
2024-05-09T02:17:23.596Z,72.38
2024-05-09T02:18:23.705Z,72.07
2024-05-09T02:19:23.649Z,72.17
2024-05-09T02:20:30.692Z,73.10
2024-05-09T02:21:25.399Z,72.17
2024-05-09T02:22:23.375Z,72.48
2024-05-09T02:23:23.395Z,72.52
2024-05-09T02:24:23.349Z,71.90
2024-05-09T02:25:23.323Z,72.28
2024-05-09T02:26:23.449Z,72.48
2024-05-09T02:27:23.292Z,72.11
2024-05-09T02:28:23.289Z,72.79
2024-05-09T02:29:23.317Z,71.77
2024-05-09T02:30:30.718Z,71.56
2024-05-09T02:31:24.218Z,72.17
2024-05-09T02:32:23.304Z,71.46
2024-05-09T02:33:23.657Z,72.07
2024-05-09T02:34:23.486Z,71.56
2024-05-09T02:35:23.260Z,71.56
2024-05-09T02:36:23.144Z,71.46
2024-05-09T02:37:23.140Z,72.99
2024-05-09T02:38:23.177Z,71.97
2024-05-09T02:39:23.137Z,71.87
2024-05-09T02:40:32.985Z,72.48
2024-05-09T02:41:25.984Z,72.31
2024-05-09T02:42:23.098Z,72.41
2024-05-09T02:43:23.027Z,72.79
2024-05-09T02:44:23.102Z,72.58
2024-05-09T02:45:23.008Z,73.13
2024-05-09T02:46:22.987Z,73.23
2024-05-09T02:47:23.196Z,74.15
2024-05-09T02:48:23.111Z,73.57
2024-05-09T02:49:23.040Z,73.33
2024-05-09T02:50:29.087Z,72.72
2024-05-09T02:51:24.897Z,72.82
2024-05-09T02:52:22.877Z,73.57
2024-05-09T02:53:22.944Z,73.57
2024-05-09T02:54:22.836Z,73.36
2024-05-09T02:55:23.881Z,73.57
2024-05-09T02:56:22.899Z,73.16
2024-05-09T02:57:22.800Z,73.68
2024-05-09T02:58:22.764Z,74.69
2024-05-09T02:59:23.895Z,74.90
2024-05-09T03:00:26.712Z,74.69
2024-05-09T03:01:24.785Z,74.60
2024-05-09T03:02:22.809Z,75.21
2024-05-09T03:03:23.032Z,75.10
2024-05-09T03:04:22.705Z,75.10
2024-05-09T03:05:22.792Z,75.31
2024-05-09T03:06:22.680Z,75.42
2024-05-09T03:07:22.664Z,75.65
2024-05-09T03:08:22.729Z,75.55
2024-05-09T03:09:22.581Z,75.14
2024-05-09T03:10:28.290Z,75.35
2024-05-09T03:11:23.679Z,75.01
2024-05-09T03:12:22.670Z,75.55
2024-05-09T03:13:22.528Z,74.39
2024-05-09T03:14:22.597Z,74.49
2024-05-09T03:15:22.517Z,75.35
2024-05-09T03:16:22.484Z,74.63
2024-05-09T03:17:22.587Z,75.24
2024-05-09T03:18:22.640Z,74.22
2024-05-09T03:19:22.698Z,74.80
2024-05-09T03:20:27.374Z,74.22
2024-05-09T03:21:24.393Z,74.29
2024-05-09T03:22:22.398Z,75.14
2024-05-09T03:23:22.422Z,74.29
2024-05-09T03:24:22.366Z,74.69
2024-05-09T03:25:22.326Z,74.49
2024-05-09T03:26:22.406Z,75.42
2024-05-09T03:27:22.321Z,74.60
2024-05-09T03:28:22.259Z,74.84
2024-05-09T03:29:22.301Z,74.69
2024-05-09T03:30:30.673Z,74.84
2024-05-09T03:31:22.238Z,74.73
2024-05-09T03:32:22.338Z,74.39
2024-05-09T03:33:22.746Z,74.69
2024-05-09T03:34:22.219Z,74.69
2024-05-09T03:35:22.243Z,75.21
2024-05-09T03:36:22.143Z,75.10
2024-05-09T03:37:22.124Z,75.35
2024-05-09T03:38:22.198Z,75.45
2024-05-09T03:39:22.085Z,75.45
2024-05-09T03:40:26.391Z,75.76
2024-05-09T03:41:23.198Z,75.96
2024-05-09T03:42:22.041Z,76.31
2024-05-09T03:43:22.042Z,75.69
2024-05-09T03:44:22.054Z,75.59
2024-05-09T03:45:22.002Z,75.89
2024-05-09T03:46:21.971Z,75.28
2024-05-09T03:47:22.107Z,75.76
2024-05-09T03:48:22.174Z,75.35
2024-05-09T03:49:22.310Z,75.14
2024-05-09T03:50:29.849Z,75.04
2024-05-09T03:51:23.896Z,75.45
2024-05-09T03:52:21.880Z,74.08
2024-05-09T03:53:21.962Z,74.32
2024-05-09T03:54:21.852Z,74.53
2024-05-09T03:55:22.820Z,74.90
2024-05-09T03:56:21.840Z,74.80
2024-05-09T03:57:21.805Z,74.39
2024-05-09T03:58:21.777Z,74.46
2024-05-09T03:59:21.829Z,74.46
2024-05-09T04:00:30.014Z,73.85
2024-05-09T04:01:23.917Z,73.64
2024-05-09T04:02:21.818Z,73.20
2024-05-09T04:03:21.904Z,73.20
2024-05-09T04:04:21.745Z,73.16
2024-05-09T04:05:21.709Z,73.36
2024-05-09T04:06:21.648Z,72.96
2024-05-09T04:07:21.635Z,73.27
2024-05-09T04:08:21.653Z,73.27
2024-05-09T04:09:21.583Z,73.47
2024-05-09T04:10:30.180Z,73.98
2024-05-09T04:11:21.649Z,73.98
2024-05-09T04:12:21.571Z,73.57
2024-05-09T04:13:21.541Z,73.23
2024-05-09T04:14:21.613Z,73.13
2024-05-09T04:15:21.532Z,73.54
2024-05-09T04:16:21.472Z,73.94
2024-05-09T04:17:21.481Z,73.13
2024-05-09T04:18:21.550Z,73.33
2024-05-09T04:19:21.692Z,72.62
2024-05-09T04:20:32.481Z,72.41
2024-05-09T04:21:22.389Z,72.62
2024-05-09T04:22:21.421Z,71.70
2024-05-09T04:23:21.395Z,71.67
2024-05-09T04:24:21.356Z,71.15
2024-05-09T04:25:21.377Z,71.26
2024-05-09T04:26:21.382Z,70.61
2024-05-09T04:27:21.414Z,71.43
2024-05-09T04:28:21.436Z,70.61
2024-05-09T04:29:21.334Z,70.68
2024-05-09T04:30:30.221Z,70.27
2024-05-09T04:31:23.206Z,69.32
2024-05-09T04:32:21.504Z,69.09
2024-05-09T04:33:21.419Z,68.34
2024-05-09T04:34:21.441Z,68.24
2024-05-09T04:35:21.248Z,68.85
2024-05-09T04:36:21.126Z,68.65
2024-05-09T04:37:21.131Z,68.31
2024-05-09T04:38:21.133Z,67.02
2024-05-09T04:39:21.096Z,66.82
2024-05-09T04:40:28.515Z,66.82
2024-05-09T04:41:22.098Z,68.07
2024-05-09T04:42:21.033Z,68.48
2024-05-09T04:43:21.026Z,68.37
2024-05-09T04:44:21.091Z,67.93
2024-05-09T04:45:21.009Z,67.52
2024-05-09T04:46:20.983Z,67.60
2024-05-09T04:47:21.064Z,67.05
2024-05-09T04:48:21.105Z,66.58
2024-05-09T04:49:20.985Z,65.44
2024-05-09T04:50:29.395Z,64.90
2024-05-09T04:51:22.904Z,65.17
2024-05-09T04:52:20.861Z,66.39
2024-05-09T04:53:20.868Z,66.39
2024-05-09T04:54:33.498Z,66.52
2024-05-09T04:55:22.820Z,65.41
2024-05-09T04:56:20.871Z,65.20
2024-05-09T04:57:20.787Z,64.06
2024-05-09T04:58:20.779Z,64.13
2024-05-09T04:59:20.808Z,64.47
2024-05-09T05:00:28.603Z,65.50
2024-05-09T05:01:22.778Z,62.60
2024-05-09T05:02:20.735Z,60.39
2024-05-09T05:03:20.976Z,59.83
2024-05-09T05:04:20.728Z,58.87
2024-05-09T05:05:20.658Z,57.20
2024-05-09T05:06:20.652Z,56.04
2024-05-09T05:07:20.636Z,54.28
2024-05-09T05:08:20.631Z,53.02
2024-05-09T05:09:20.602Z,52.19
2024-05-09T05:10:25.513Z,51.37
2024-05-09T05:11:22.641Z,49.33
2024-05-09T05:12:20.635Z,48.71
2024-05-09T05:13:21.824Z,48.19
2024-05-09T05:14:20.687Z,48.19
2024-05-09T05:15:20.488Z,49.19
2024-05-09T05:16:20.466Z,48.86
2024-05-09T05:17:20.631Z,49.07
2024-05-09T05:18:20.654Z,48.16
2024-05-09T05:19:20.523Z,48.66
2024-05-09T05:20:27.465Z,48.86
2024-05-09T05:21:22.519Z,47.66
2024-05-09T05:22:20.438Z,48.44
2024-05-09T05:23:20.552Z,47.11
2024-05-09T05:24:20.322Z,47.22
2024-05-09T05:25:20.305Z,47.92
2024-05-09T05:26:20.533Z,47.69
2024-05-09T05:27:20.330Z,47.89
2024-05-09T05:28:20.289Z,48.39
2024-05-09T05:29:21.004Z,48.67
2024-05-09T05:30:25.488Z,48.05
2024-05-09T05:31:21.312Z,47.85
2024-05-09T05:32:20.469Z,47.83
2024-05-09T05:33:20.785Z,47.50
2024-05-09T05:34:20.149Z,46.38
2024-05-09T05:35:20.185Z,45.17
2024-05-09T05:36:20.122Z,45.18
2024-05-09T05:37:20.108Z,43.69
2024-05-09T05:38:22.824Z,45.01
2024-05-09T05:39:20.176Z,44.93
2024-05-09T05:40:28.185Z,44.01
2024-05-09T05:41:22.056Z,43.59
2024-05-09T05:42:20.027Z,43.79
2024-05-09T05:43:20.146Z,43.77
2024-05-09T05:44:20.126Z,44.27
2024-05-09T05:45:19.974Z,43.05
2024-05-09T05:46:19.959Z,43.93
2024-05-09T05:47:20.148Z,43.52
2024-05-09T05:48:20.067Z,43.98
2024-05-09T05:49:20.134Z,43.59
2024-05-09T05:50:27.424Z,42.57
2024-05-09T05:51:21.949Z,43.15
2024-05-09T05:52:19.853Z,40.64
2024-05-09T05:53:19.874Z,39.73
2024-05-09T05:54:19.864Z,40.84
2024-05-09T05:55:19.788Z,40.74
2024-05-09T05:56:19.911Z,41.34
2024-05-09T05:57:19.766Z,41.52
2024-05-09T05:58:19.764Z,42.29
2024-05-09T05:59:19.807Z,41.00
2024-05-09T06:00:29.227Z,40.58
2024-05-09T06:01:21.776Z,39.28
2024-05-09T06:02:19.747Z,39.77
2024-05-09T06:03:19.717Z,39.65
2024-05-09T06:04:19.694Z,39.65
2024-05-09T06:05:19.712Z,38.84
2024-05-09T06:06:19.622Z,39.14
2024-05-09T06:07:19.626Z,39.14
2024-05-09T06:08:19.659Z,39.02
2024-05-09T06:09:19.573Z,38.72
2024-05-09T06:10:25.423Z,39.34
2024-05-09T06:11:21.650Z,39.73
2024-05-09T06:12:19.667Z,39.53
2024-05-09T06:13:19.511Z,40.52
2024-05-09T06:14:19.607Z,40.82
2024-05-09T06:15:19.528Z,41.71
2024-05-09T06:16:19.477Z,42.31
2024-05-09T06:17:19.558Z,41.91
2024-05-09T06:18:19.789Z,40.44
2024-05-09T06:19:19.683Z,40.34
2024-05-09T06:20:24.050Z,40.34
2024-05-09T06:21:21.491Z,40.36
2024-05-09T06:22:19.366Z,40.55
2024-05-09T06:23:19.407Z,39.36
2024-05-09T06:24:19.344Z,39.34
2024-05-09T06:25:19.426Z,39.20
2024-05-09T06:26:19.475Z,38.88
2024-05-09T06:27:19.310Z,39.18
2024-05-09T06:28:19.272Z,38.47
2024-05-09T06:29:19.397Z,38.55
2024-05-09T06:30:25.469Z,38.73
2024-05-09T06:31:21.263Z,37.64
2024-05-09T06:32:19.292Z,38.06
2024-05-09T06:33:19.493Z,38.13
2024-05-09T06:34:19.362Z,38.53
2024-05-09T06:35:19.254Z,38.63
2024-05-09T06:36:19.298Z,38.12
2024-05-09T06:37:19.171Z,38.12
2024-05-09T06:38:19.159Z,37.90
2024-05-09T06:39:19.130Z,38.57
2024-05-09T06:40:25.483Z,37.87
2024-05-09T06:41:21.154Z,36.76
2024-05-09T06:42:19.141Z,36.27
2024-05-09T06:43:19.874Z,36.78
2024-05-09T06:44:19.085Z,36.99
2024-05-09T06:45:19.062Z,37.85
2024-05-09T06:46:19.000Z,36.92
2024-05-09T06:47:19.050Z,35.80
2024-05-09T06:48:19.753Z,35.61
2024-05-09T06:49:19.174Z,34.34
2024-05-09T06:50:23.962Z,34.75
2024-05-09T06:51:21.011Z,35.35
2024-05-09T06:52:51.388Z,35.82
2024-05-09T06:53:18.976Z,35.41
2024-05-09T06:54:18.879Z,35.88
2024-05-09T06:55:18.871Z,34.22
2024-05-09T06:56:18.892Z,34.99
2024-05-09T06:57:18.852Z,34.78
2024-05-09T06:58:18.864Z,33.49
2024-05-09T06:59:18.872Z,31.45
2024-05-09T07:00:27.240Z,32.71
2024-05-09T07:01:20.898Z,33.49
2024-05-09T07:02:18.891Z,32.71
2024-05-09T07:03:19.690Z,31.90
2024-05-09T07:04:18.835Z,30.74
2024-05-09T07:05:18.881Z,32.12
2024-05-09T07:06:18.734Z,32.01
2024-05-09T07:07:18.731Z,32.69
2024-05-09T07:08:19.053Z,32.17
2024-05-09T07:09:18.706Z,31.48
2024-05-09T07:10:25.599Z,31.47
2024-05-09T07:11:19.784Z,31.84
2024-05-09T07:12:18.784Z,32.04
2024-05-09T07:13:18.638Z,32.23
2024-05-09T07:14:18.811Z,32.61
2024-05-09T07:15:18.566Z,30.37
2024-05-09T07:16:18.584Z,30.08
2024-05-09T07:17:18.607Z,29.98
2024-05-09T07:18:19.648Z,30.18
2024-05-09T07:19:18.768Z,30.39
2024-05-09T07:20:23.751Z,31.27
2024-05-09T07:21:20.558Z,30.00
2024-05-09T07:22:18.468Z,30.42
2024-05-09T07:23:18.754Z,31.63
2024-05-09T07:24:18.467Z,31.92
2024-05-09T07:25:18.437Z,32.20
2024-05-09T07:26:18.556Z,31.58
2024-05-09T07:27:18.411Z,30.19
2024-05-09T07:28:18.582Z,31.27
2024-05-09T07:29:18.463Z,29.11
2024-05-09T07:30:23.582Z,31.68
2024-05-09T07:31:20.370Z,30.70
2024-05-09T07:32:18.429Z,31.89
2024-05-09T07:33:18.775Z,31.68
2024-05-09T07:34:18.441Z,31.38
2024-05-09T07:35:18.343Z,32.64
2024-05-09T07:36:18.266Z,31.45
2024-05-09T07:37:18.263Z,30.26
2024-05-09T07:38:18.342Z,29.95
2024-05-09T07:39:18.255Z,30.44
2024-05-09T07:40:28.197Z,30.72
2024-05-09T07:41:20.326Z,30.05
2024-05-09T07:42:18.191Z,30.74
2024-05-09T07:43:18.188Z,29.94
2024-05-09T07:44:18.214Z,30.54
2024-05-09T07:45:39.661Z,30.72
2024-05-09T07:48:29.079Z,31.51
2024-05-09T07:53:38.389Z,29.48
2024-05-09T07:54:20.226Z,29.58
2024-05-09T07:55:18.376Z,30.87
2024-05-09T07:56:19.110Z,32.15
2024-05-09T07:57:18.164Z,30.85
2024-05-09T07:58:18.033Z,30.77
2024-05-09T07:59:18.012Z,31.65
2024-05-09T08:00:23.702Z,31.94
2024-05-09T08:01:19.390Z,30.67
2024-05-09T08:02:18.042Z,29.00
2024-05-09T08:03:18.098Z,30.37
2024-05-09T08:04:18.161Z,30.27
2024-05-09T08:05:17.993Z,30.49
2024-05-09T08:06:17.878Z,30.99
2024-05-09T08:07:17.909Z,32.17
2024-05-09T08:08:17.857Z,34.01
2024-05-09T08:09:21.132Z,30.57
2024-05-09T08:10:22.174Z,31.03
2024-05-09T08:11:19.847Z,29.06
2024-05-09T08:12:17.794Z,29.79
2024-05-09T08:13:17.833Z,29.60
2024-05-09T08:14:17.785Z,32.27
2024-05-09T08:15:17.810Z,29.13
2024-05-09T08:16:17.739Z,29.53
2024-05-09T08:17:17.746Z,30.52
2024-05-09T08:18:17.916Z,30.47
2024-05-09T08:19:17.790Z,28.79
2024-05-09T08:20:26.643Z,28.09
2024-05-09T08:21:19.704Z,28.69
2024-05-09T08:22:17.686Z,29.17
2024-05-09T08:23:17.651Z,29.16
2024-05-09T08:24:17.663Z,27.78
2024-05-09T08:25:17.768Z,28.77
2024-05-09T08:26:17.609Z,27.09
2024-05-09T08:27:17.569Z,27.20
2024-05-09T08:28:17.824Z,29.06
2024-05-09T08:29:17.588Z,29.32
2024-05-09T08:30:24.746Z,28.44
2024-05-09T08:31:19.657Z,27.86
2024-05-09T08:32:17.536Z,28.26
2024-05-09T08:33:17.655Z,29.73
2024-05-09T08:34:17.628Z,26.98
2024-05-09T08:35:17.465Z,28.23
2024-05-09T08:36:17.468Z,26.97
2024-05-09T08:37:22.450Z,27.06
2024-05-09T08:38:19.437Z,28.33
2024-05-09T08:39:17.458Z,27.26
2024-05-09T08:40:24.069Z,26.38
2024-05-09T08:41:18.423Z,27.36
2024-05-09T08:42:17.389Z,27.36
2024-05-09T08:43:17.452Z,28.14
2024-05-09T08:44:17.376Z,27.75
2024-05-09T08:45:17.387Z,25.89
2024-05-09T08:46:17.436Z,27.06
2024-05-09T08:47:17.329Z,27.84
2024-05-09T08:48:17.418Z,29.20
2024-05-09T08:49:17.384Z,28.69
2024-05-09T08:50:28.723Z,27.90
2024-05-09T08:51:19.277Z,26.86
2024-05-09T08:52:17.296Z,27.84
2024-05-09T08:53:17.222Z,27.19
2024-05-09T08:54:17.204Z,29.16
2024-05-09T08:55:17.265Z,29.44
2024-05-09T08:56:17.175Z,28.06
2024-05-09T08:57:17.201Z,29.73
2024-05-09T08:58:17.388Z,29.52
2024-05-09T08:59:17.210Z,28.53
2024-05-09T09:00:25.804Z,28.44
2024-05-09T09:01:18.187Z,27.65
2024-05-09T09:02:17.522Z,27.55
2024-05-09T09:03:17.127Z,27.94
2024-05-09T09:04:17.292Z,26.98
2024-05-09T09:05:17.263Z,27.87
2024-05-09T09:06:17.027Z,28.16
2024-05-09T09:07:17.122Z,26.99
2024-05-09T09:08:17.030Z,27.98
2024-05-09T09:09:17.003Z,28.22
2024-05-09T09:10:25.381Z,28.89
2024-05-09T09:11:18.987Z,29.10
2024-05-09T09:12:16.944Z,28.82
2024-05-09T09:13:17.059Z,30.77
2024-05-09T09:14:16.946Z,29.68
2024-05-09T09:15:16.957Z,29.75
2024-05-09T09:16:17.015Z,28.26
2024-05-09T09:17:16.908Z,28.88
2024-05-09T09:18:17.169Z,28.79
2024-05-09T09:19:17.127Z,28.29
2024-05-09T09:20:23.219Z,30.57
2024-05-09T09:21:17.834Z,29.20
2024-05-09T09:22:16.947Z,30.96
2024-05-09T09:23:16.901Z,30.10
2024-05-09T09:24:16.809Z,29.60
2024-05-09T09:25:16.822Z,27.85
2024-05-09T09:26:16.747Z,30.24
2024-05-09T09:27:17.757Z,30.70
2024-05-09T09:28:16.780Z,30.81
2024-05-09T09:29:16.733Z,30.71
2024-05-09T09:30:30.812Z,29.05
2024-05-09T09:31:18.785Z,29.66
2024-05-09T09:32:16.759Z,29.16
2024-05-09T09:33:16.753Z,30.80
2024-05-09T09:34:16.821Z,29.21
2024-05-09T09:35:16.646Z,29.41
2024-05-09T09:36:16.639Z,30.58
2024-05-09T09:37:16.648Z,29.20
2024-05-09T09:38:16.648Z,28.12
2024-05-09T09:39:16.661Z,28.43
2024-05-09T09:40:18.421Z,29.93
2024-05-09T09:41:16.593Z,28.85
2024-05-09T09:42:16.578Z,28.77
2024-05-09T09:43:16.598Z,29.25
2024-05-09T09:44:16.592Z,30.50
2024-05-09T09:45:16.542Z,30.01
2024-05-09T09:46:16.645Z,30.80
2024-05-09T09:47:17.511Z,29.43
2024-05-09T09:48:16.609Z,30.08
2024-05-09T09:49:16.645Z,29.22
2024-05-09T09:50:20.486Z,29.45
2024-05-09T09:51:18.464Z,29.47
2024-05-09T09:52:16.487Z,30.84
2024-05-09T09:53:17.419Z,29.47
2024-05-09T09:54:16.386Z,31.63
2024-05-09T09:55:16.562Z,33.84
2024-05-09T09:56:16.390Z,30.27
2024-05-09T09:57:16.346Z,30.85
2024-05-09T09:58:16.415Z,28.09
2024-05-09T09:59:16.304Z,28.29
2024-05-09T10:01:17.443Z,29.32
2024-05-09T10:02:16.510Z,28.34
2024-05-09T10:03:16.301Z,27.75
2024-05-09T10:04:16.353Z,28.71
2024-05-09T10:05:16.361Z,28.03
2024-05-09T10:06:16.272Z,27.83
2024-05-09T10:07:16.274Z,27.26
2024-05-09T10:08:16.247Z,28.44
2024-05-09T10:09:16.166Z,29.83
2024-05-09T10:10:20.069Z,28.18
2024-05-09T10:11:17.225Z,28.12
2024-05-09T10:12:16.223Z,29.50
2024-05-09T10:13:16.412Z,29.45
2024-05-09T10:14:16.102Z,30.93
2024-05-09T10:15:16.093Z,30.24
2024-05-09T10:16:16.143Z,30.71
2024-05-09T10:17:16.080Z,30.22
2024-05-09T10:18:16.441Z,28.65
2024-05-09T10:19:16.199Z,29.22
2024-05-09T10:20:21.841Z,28.82
2024-05-09T10:21:18.104Z,27.84
2024-05-09T10:22:16.206Z,29.41
2024-05-09T10:23:16.295Z,29.44
2024-05-09T10:24:15.935Z,29.76
2024-05-09T10:25:16.150Z,30.25
2024-05-09T10:26:16.005Z,32.20
2024-05-09T10:27:15.941Z,29.93
2024-05-09T10:28:16.020Z,31.70
2024-05-09T10:29:15.976Z,32.87
2024-05-09T10:30:25.315Z,32.17
2024-05-09T10:31:17.973Z,30.32
2024-05-09T10:32:15.975Z,31.71
2024-05-09T10:33:16.067Z,32.92
2024-05-09T10:34:16.156Z,31.80
2024-05-09T10:35:15.857Z,34.01
2024-05-09T10:36:15.792Z,34.33
2024-05-09T10:37:15.948Z,35.33
2024-05-09T10:38:15.759Z,34.44
2024-05-09T10:39:15.770Z,35.25
2024-05-09T10:40:23.338Z,34.67
2024-05-09T10:41:17.709Z,35.49
2024-05-09T10:42:15.723Z,35.82
2024-05-09T10:43:15.733Z,34.55
2024-05-09T10:44:15.694Z,36.58
2024-05-09T10:45:15.652Z,37.47
2024-05-09T10:46:15.902Z,38.64
2024-05-09T10:47:15.757Z,39.34
2024-05-09T10:48:15.698Z,37.47
2024-05-09T10:49:15.726Z,36.88
2024-05-09T10:50:22.429Z,37.37
2024-05-09T10:51:17.572Z,38.07
2024-05-09T10:52:16.790Z,36.18
2024-05-09T10:53:15.540Z,36.86
2024-05-09T10:54:15.551Z,37.85
2024-05-09T10:55:15.528Z,36.88
2024-05-09T10:56:15.511Z,36.58
2024-05-09T10:57:15.498Z,38.07
2024-05-09T10:58:15.572Z,36.58
2024-05-09T10:59:15.478Z,35.71
2024-05-09T11:00:23.343Z,36.99
2024-05-09T11:01:17.551Z,38.70
2024-05-09T11:02:15.574Z,37.64
2024-05-09T11:03:15.458Z,38.26
2024-05-09T11:04:15.442Z,41.04
2024-05-09T11:05:15.513Z,40.92
2024-05-09T11:06:15.354Z,41.52
2024-05-09T11:07:15.382Z,41.89
2024-05-09T11:08:15.340Z,41.89
2024-05-09T11:09:16.297Z,41.50
2024-05-09T11:10:20.714Z,41.79
2024-05-09T11:11:16.351Z,39.53
2024-05-09T11:12:15.298Z,39.54
2024-05-09T11:13:15.336Z,41.06
2024-05-09T11:14:15.218Z,41.95
2024-05-09T11:15:15.247Z,42.35
2024-05-09T11:16:15.313Z,41.66
2024-05-09T11:17:15.219Z,39.98
2024-05-09T11:18:15.280Z,41.00
2024-05-09T11:19:15.443Z,43.11
2024-05-09T11:20:22.732Z,41.44
2024-05-09T11:21:17.107Z,43.25
2024-05-09T11:22:15.215Z,43.55
2024-05-09T11:23:15.072Z,40.66
2024-05-09T11:24:15.074Z,42.55
2024-05-09T11:25:15.149Z,40.68
2024-05-09T11:26:15.005Z,40.98
2024-05-09T11:27:15.027Z,43.67
2024-05-09T11:28:15.194Z,41.50
2024-05-09T11:29:17.946Z,42.89
2024-05-09T11:30:23.778Z,43.67
2024-05-09T11:31:17.200Z,43.97
2024-05-09T11:32:14.986Z,43.35
2024-05-09T11:33:14.995Z,42.65
2024-05-09T11:34:14.964Z,41.85
2024-05-09T11:35:14.878Z,40.66
2024-05-09T11:36:14.866Z,42.47
2024-05-09T11:37:15.038Z,40.80
2024-05-09T11:38:14.838Z,43.37
2024-05-09T11:39:15.016Z,45.26
2024-05-09T11:40:21.391Z,43.25
2024-05-09T11:41:16.800Z,44.42
2024-05-09T11:42:14.766Z,43.82
2024-05-09T11:43:14.869Z,43.63
2024-05-09T11:44:14.727Z,42.93
2024-05-09T11:45:14.754Z,41.83
2024-05-09T11:46:14.911Z,40.36
2024-05-09T11:47:14.740Z,41.85
2024-05-09T11:48:14.808Z,42.35
2024-05-09T11:49:14.763Z,42.05
2024-05-09T11:50:22.530Z,42.75
2024-05-09T11:51:16.634Z,42.27
2024-05-09T11:52:14.630Z,41.77
2024-05-09T11:53:14.582Z,40.72
2024-05-09T11:54:14.571Z,41.41
2024-05-09T11:55:14.782Z,41.83
2024-05-09T11:56:14.560Z,43.03
2024-05-09T11:57:14.516Z,41.53
2024-05-09T11:58:14.599Z,43.43
2024-05-09T11:59:14.509Z,40.81
2024-05-09T12:00:20.782Z,40.64
2024-05-09T12:01:16.531Z,39.76
2024-05-09T12:02:14.602Z,39.26
2024-05-09T12:03:14.568Z,39.56
2024-05-09T12:04:14.698Z,41.14
2024-05-09T12:05:14.550Z,39.64
2024-05-09T12:06:14.432Z,38.32
2024-05-09T12:07:14.393Z,39.42
2024-05-09T12:08:14.414Z,38.92
2024-05-09T12:09:14.415Z,40.04
2024-05-09T12:10:19.591Z,40.64
2024-05-09T12:11:15.406Z,40.66
2024-05-09T12:12:14.271Z,40.78
2024-05-09T12:13:14.310Z,40.88
2024-05-09T12:14:14.288Z,40.39
2024-05-09T12:15:14.210Z,40.89
2024-05-09T12:16:14.407Z,41.11
2024-05-09T12:17:14.264Z,42.61
2024-05-09T12:18:14.278Z,43.71
2024-05-09T12:19:14.267Z,43.82
2024-05-09T12:20:21.369Z,46.44
2024-05-09T12:21:16.196Z,46.34
2024-05-09T12:22:14.294Z,46.01
2024-05-09T12:23:14.099Z,47.72
2024-05-09T12:24:16.988Z,45.89
2024-05-09T12:25:15.152Z,46.12
2024-05-09T12:26:14.038Z,46.12
2024-05-09T12:27:14.083Z,46.72
2024-05-09T12:28:14.060Z,45.04
2024-05-09T12:29:14.013Z,43.63
2024-05-09T12:30:20.723Z,45.36
2024-05-09T12:31:16.109Z,44.04
2024-05-09T12:32:13.969Z,45.24
2024-05-09T12:33:14.392Z,46.46
2024-05-09T12:34:14.105Z,46.36
2024-05-09T12:35:13.935Z,47.04
2024-05-09T12:36:13.863Z,45.66
2024-05-09T12:37:14.081Z,43.63
2024-05-09T12:38:13.877Z,44.26
2024-05-09T12:39:13.854Z,44.06
2024-05-09T12:40:22.488Z,45.46
2024-05-09T12:41:15.831Z,43.85
2024-05-09T12:42:25.885Z,43.66
2024-05-09T12:43:15.816Z,43.85
2024-05-09T12:44:13.735Z,44.08
2024-05-09T12:45:13.743Z,45.26
2024-05-09T12:46:13.753Z,45.06
2024-05-09T12:47:13.730Z,46.54
2024-05-09T12:48:13.920Z,47.94
2024-05-09T12:49:15.660Z,46.64
2024-05-09T12:50:21.971Z,46.22
2024-05-09T12:51:15.626Z,47.84
2024-05-09T12:52:14.720Z,47.44
2024-05-09T12:53:46.021Z,49.14
2024-05-09T12:54:13.606Z,49.34
2024-05-09T12:55:13.635Z,47.11
2024-05-09T12:56:13.548Z,47.34
2024-05-09T12:57:14.584Z,48.11
2024-05-09T12:58:13.638Z,47.02
2024-05-09T12:59:13.512Z,46.31